createdAt,value
2023-01-31T00:04:59.987Z,8.30
2023-01-31T00:09:59.146Z,7.80
2023-01-31T00:15:00.407Z,7.80
2023-01-31T00:20:02.510Z,7.90
2023-01-31T00:25:02.973Z,7.70
2023-01-31T00:30:02.118Z,8.00
2023-01-31T00:35:03.316Z,9.10
2023-01-31T00:40:05.531Z,8.10
2023-01-31T00:45:04.681Z,8.00
2023-01-31T00:50:04.937Z,7.30
2023-01-31T00:55:06.070Z,8.60
2023-01-31T01:00:07.169Z,8.40
2023-01-31T01:05:10.341Z,8.20
2023-01-31T01:10:09.567Z,8.80
2023-01-31T01:15:11.700Z,7.90
2023-01-31T01:20:10.930Z,8.40
2023-01-31T01:25:13.133Z,7.50
2023-01-31T01:30:12.593Z,8.30
2023-01-31T01:35:15.203Z,7.60
2023-01-31T01:40:15.602Z,8.20
2023-01-31T01:45:14.886Z,8.50
2023-01-31T01:50:16.035Z,8.50
2023-01-31T01:55:19.380Z,9.80
2023-01-31T02:00:16.628Z,8.60
2023-01-31T02:05:18.471Z,10.40
2023-01-31T02:10:17.751Z,9.80
2023-01-31T02:15:19.260Z,9.80
2023-01-31T02:20:18.536Z,12.10
2023-01-31T02:25:20.110Z,9.70
2023-01-31T02:30:24.044Z,8.60
2023-01-31T02:35:19.409Z,8.80
2023-01-31T02:40:18.719Z,10.10
2023-01-31T02:45:20.616Z,9.20
2023-01-31T02:50:20.661Z,10.20
2023-01-31T02:55:20.619Z,9.20
2023-01-31T03:00:21.779Z,8.80
2023-01-31T03:05:22.264Z,9.20
2023-01-31T03:10:22.764Z,9.70
2023-01-31T03:15:22.268Z,9.80
2023-01-31T03:20:21.784Z,10.20
2023-01-31T03:25:24.315Z,9.40
2023-01-31T03:30:23.762Z,9.60
2023-01-31T03:35:26.201Z,10.10
2023-01-31T03:40:25.373Z,9.50
2023-01-31T03:45:27.509Z,10.90
2023-01-31T03:50:26.591Z,9.60
2023-01-31T03:55:29.766Z,9.80
2023-01-31T04:00:28.918Z,10.30
2023-01-31T04:05:30.038Z,8.80
2023-01-31T04:10:31.230Z,9.70
2023-01-31T04:15:32.360Z,10.40
2023-01-31T04:20:33.600Z,11.10
2023-01-31T04:25:34.760Z,11.70
2023-01-31T04:30:35.887Z,10.60
2023-01-31T04:35:37.025Z,11.30
2023-01-31T04:40:39.162Z,11.50
2023-01-31T04:45:39.411Z,10.70
2023-01-31T04:50:39.550Z,10.20
2023-01-31T04:55:38.676Z,10.50
2023-01-31T05:00:40.896Z,10.60
2023-01-31T05:05:40.045Z,10.10
2023-01-31T05:10:40.176Z,11.10
2023-01-31T05:15:42.328Z,12.20
2023-01-31T05:20:43.227Z,12.60
2023-01-31T05:25:43.396Z,14.80
2023-01-31T05:30:42.534Z,10.90
2023-01-31T05:35:43.758Z,11.80
2023-01-31T05:40:45.002Z,11.50
2023-01-31T05:45:46.107Z,12.40
2023-01-31T05:50:47.229Z,12.50
2023-01-31T05:55:48.339Z,12.00
2023-01-31T06:00:49.615Z,12.70
2023-01-31T06:05:50.727Z,13.40
2023-01-31T06:10:52.853Z,12.80
2023-01-31T06:15:51.997Z,12.40
2023-01-31T06:20:53.194Z,13.90
2023-01-31T06:25:54.673Z,15.60
2023-01-31T06:30:55.054Z,15.10
2023-01-31T06:35:54.221Z,13.70
2023-01-31T06:40:55.500Z,16.10
2023-01-31T06:45:57.639Z,13.70
2023-01-31T06:50:56.840Z,15.70
2023-01-31T06:55:57.993Z,18.50
2023-01-31T07:00:58.102Z,17.70
2023-01-31T07:06:00.514Z,14.30
2023-01-31T07:10:59.672Z,16.50
2023-01-31T07:16:00.931Z,16.00
2023-01-31T07:21:03.175Z,16.40
2023-01-31T07:26:06.442Z,15.60
2023-01-31T07:31:03.906Z,16.20
2023-01-31T07:36:03.100Z,14.10
2023-01-31T07:41:04.284Z,11.90
2023-01-31T07:46:07.430Z,12.10
2023-01-31T07:51:06.563Z,14.90
2023-01-31T07:56:08.742Z,12.00
2023-01-31T08:01:07.917Z,12.20
2023-01-31T08:06:10.204Z,12.10
2023-01-31T08:11:09.627Z,11.70
2023-01-31T08:16:10.724Z,11.60
2023-01-31T08:21:12.035Z,10.70
2023-01-31T08:26:13.270Z,10.90
2023-01-31T08:31:15.611Z,10.90
2023-01-31T08:36:15.835Z,8.30
2023-01-31T08:41:15.015Z,7.70
2023-01-31T08:46:17.229Z,8.50
2023-01-31T08:51:17.347Z,10.70
2023-01-31T08:56:16.515Z,8.00
2023-01-31T09:01:17.752Z,8.90
2023-01-31T09:06:18.953Z,9.40
2023-01-31T09:11:21.054Z,7.10
2023-01-31T09:16:20.200Z,6.40
2023-01-31T09:21:21.322Z,5.70
2023-01-31T09:26:24.522Z,6.40
2023-01-31T09:31:23.727Z,4.20
2023-01-31T09:36:25.874Z,5.10
2023-01-31T09:41:26.025Z,6.00
2023-01-31T09:46:26.195Z,6.60
2023-01-31T09:51:26.326Z,5.60
2023-01-31T09:56:26.479Z,6.00
2023-01-31T10:01:25.576Z,5.00
2023-01-31T10:06:26.696Z,3.20
2023-01-31T10:11:28.129Z,2.90
2023-01-31T10:16:30.468Z,3.30
2023-01-31T10:21:30.582Z,3.40
2023-01-31T10:26:30.801Z,4.20
2023-01-31T10:31:31.656Z,5.50
2023-01-31T10:36:31.643Z,6.00
2023-01-31T10:41:31.249Z,6.00
2023-01-31T10:46:30.779Z,3.60
2023-01-31T10:51:32.909Z,2.90
2023-01-31T10:56:32.014Z,3.20
2023-01-31T11:01:34.104Z,3.30
2023-01-31T11:06:33.257Z,3.00
2023-01-31T11:11:34.469Z,3.10
2023-01-31T11:16:35.605Z,2.60
2023-01-31T11:21:37.762Z,3.30
2023-01-31T11:26:38.002Z,3.30
2023-01-31T11:31:37.137Z,4.60
2023-01-31T11:36:39.283Z,3.20
2023-01-31T11:41:38.408Z,3.30
2023-01-31T11:46:40.555Z,3.30
2023-01-31T11:51:39.672Z,4.60
2023-01-31T11:56:40.779Z,4.20
2023-01-31T12:01:41.907Z,4.40
2023-01-31T12:06:43.069Z,3.10
2023-01-31T12:11:45.202Z,3.30
2023-01-31T12:16:43.376Z,2.70
2023-01-31T12:21:46.514Z,3.20
2023-01-31T12:26:45.725Z,2.80
2023-01-31T12:31:47.196Z,3.20
2023-01-31T12:36:47.385Z,2.40
2023-01-31T12:41:46.485Z,3.30
2023-01-31T12:46:54.791Z,2.70
2023-01-31T12:51:48.608Z,2.80
2023-01-31T12:56:50.240Z,2.30
2023-01-31T13:01:49.407Z,3.30
2023-01-31T13:06:50.738Z,3.80
2023-01-31T13:11:52.847Z,2.90
2023-01-31T13:16:54.024Z,3.10
2023-01-31T13:21:54.195Z,3.00
2023-01-31T13:26:54.287Z,7.40
2023-01-31T13:31:53.408Z,5.60
2023-01-31T13:36:54.514Z,7.10
2023-01-31T13:41:56.626Z,8.70
2023-01-31T13:46:56.812Z,7.30
2023-01-31T13:51:55.965Z,7.10
2023-01-31T13:56:58.095Z,9.50
2023-01-31T14:01:57.247Z,9.00
2023-01-31T14:07:00.388Z,10.70
2023-01-31T14:11:59.524Z,8.40
2023-01-31T14:17:01.629Z,9.20
2023-01-31T14:22:00.755Z,11.50
2023-01-31T14:27:02.926Z,10.10
2023-01-31T14:32:04.144Z,8.70
2023-01-31T14:37:03.259Z,9.90
2023-01-31T14:42:04.365Z,9.70
2023-01-31T14:47:07.947Z,7.70
2023-01-31T14:52:06.212Z,7.70
2023-01-31T14:57:05.645Z,8.30
2023-01-31T15:02:07.790Z,9.10
2023-01-31T15:07:08.884Z,7.90
2023-01-31T15:12:09.036Z,9.40
2023-01-31T15:17:11.130Z,9.20
2023-01-31T15:22:08.098Z,11.50
2023-01-31T15:27:10.271Z,9.00
2023-01-31T15:32:09.435Z,8.00
2023-01-31T15:37:10.597Z,5.50
2023-01-31T15:42:12.787Z,4.70
2023-01-31T15:47:12.935Z,5.30
2023-01-31T15:52:13.152Z,7.60
2023-01-31T15:57:13.323Z,6.90
2023-01-31T16:02:12.500Z,5.50
2023-01-31T16:07:14.937Z,3.90
2023-01-31T16:12:15.058Z,4.70
2023-01-31T16:17:15.218Z,6.00
2023-01-31T16:22:15.350Z,7.40
2023-01-31T16:27:14.489Z,6.20
2023-01-31T16:32:15.657Z,14.40
2023-01-31T16:37:17.867Z,4.70
2023-01-31T16:42:16.995Z,6.20
2023-01-31T16:47:19.266Z,16.10
2023-01-31T16:52:19.436Z,9.00
2023-01-31T16:57:18.568Z,9.40
2023-01-31T17:02:19.711Z,12.00
2023-01-31T17:07:21.098Z,9.40
2023-01-31T17:12:20.299Z,7.80
2023-01-31T17:17:22.137Z,5.80
2023-01-31T17:22:22.749Z,8.10
2023-01-31T17:27:21.978Z,7.40
2023-01-31T17:32:23.471Z,8.70
2023-01-31T17:37:31.569Z,12.70
2023-01-31T17:42:25.160Z,12.80
2023-01-31T17:47:25.484Z,11.90
2023-01-31T17:52:23.729Z,13.30
2023-01-31T17:57:25.120Z,10.50
2023-01-31T18:02:26.987Z,10.30
2023-01-31T18:07:26.463Z,12.70
2023-01-31T18:12:25.990Z,12.30
2023-01-31T18:17:25.227Z,11.80
2023-01-31T18:22:25.757Z,15.00
2023-01-31T18:27:28.222Z,13.70
2023-01-31T18:32:27.723Z,13.60
2023-01-31T18:37:27.175Z,13.20
2023-01-31T18:42:29.689Z,12.70
2023-01-31T18:47:33.078Z,10.40
2023-01-31T18:52:30.347Z,11.60
2023-01-31T18:57:32.837Z,11.30
2023-01-31T19:02:32.437Z,11.70
2023-01-31T19:07:34.470Z,11.10
2023-01-31T19:12:32.203Z,8.80
2023-01-31T19:17:31.502Z,9.30
2023-01-31T19:22:33.956Z,7.40
2023-01-31T19:27:33.492Z,8.10
2023-01-31T19:32:38.250Z,15.00
2023-01-31T19:37:34.563Z,14.00
2023-01-31T19:42:34.291Z,10.90
2023-01-31T19:47:34.876Z,13.60
2023-01-31T19:52:36.481Z,13.30
2023-01-31T19:57:33.973Z,13.80
2023-01-31T20:02:35.513Z,19.30
2023-01-31T20:07:37.496Z,13.20
2023-01-31T20:12:35.956Z,11.80
2023-01-31T20:17:46.209Z,10.30
2023-01-31T20:22:35.519Z,9.60
2023-01-31T20:27:36.907Z,11.90
2023-01-31T20:32:36.176Z,10.70
2023-01-31T20:37:37.869Z,10.50
2023-01-31T20:42:37.529Z,9.00
2023-01-31T20:47:37.876Z,11.20
2023-01-31T20:52:38.344Z,9.60
2023-01-31T20:57:37.215Z,11.40
2023-01-31T21:02:37.679Z,10.70
2023-01-31T21:07:38.530Z,9.60
2023-01-31T21:12:40.778Z,9.30
2023-01-31T21:17:40.777Z,10.70
2023-01-31T21:22:39.948Z,11.50
2023-01-31T21:27:41.351Z,17.00
2023-01-31T21:32:42.540Z,13.60
2023-01-31T21:37:45.106Z,16.30
2023-01-31T21:42:44.336Z,14.10
2023-01-31T21:47:45.498Z,12.80
2023-01-31T21:52:46.657Z,14.10
2023-01-31T21:57:48.811Z,12.50
2023-01-31T22:02:48.137Z,13.00
2023-01-31T22:07:49.358Z,15.40
2023-01-31T22:12:50.507Z,15.50
2023-01-31T22:17:51.697Z,16.50
2023-01-31T22:22:53.877Z,14.30
2023-01-31T22:27:53.088Z,13.30
2023-01-31T22:32:55.191Z,13.10
2023-01-31T22:37:55.427Z,14.60
2023-01-31T22:42:56.615Z,15.70
2023-01-31T22:47:55.785Z,16.80
2023-01-31T22:52:56.977Z,12.50
2023-01-31T22:57:58.181Z,17.40
2023-01-31T23:02:59.472Z,15.40
2023-01-31T23:08:00.664Z,12.90
2023-01-31T23:13:02.839Z,14.00
2023-01-31T23:18:02.953Z,12.40
2023-01-31T23:23:02.057Z,12.90
2023-01-31T23:28:03.238Z,12.50
2023-01-31T23:33:04.387Z,13.90
2023-01-31T23:38:05.517Z,15.60
2023-01-31T23:43:08.640Z,12.40
2023-01-31T23:48:07.752Z,13.50
2023-01-31T23:53:08.949Z,12.90
2023-01-31T23:58:11.019Z,11.00
